Pinewood, South Carolina
Current Conditions -  °F | °C
As of 6:58 PM on Sunday 21 Dec 2014 (Local Time) from KSSC Reporting Station
Overcast Overcast  
Wind Chill: 51°   Ceiling: 5000
Heat Index: 51°   Visibility: 10mi
Dew Point: 40°   Wind: 8mph
Humidity: 67%   Direction: 70°ENE
Pressure: 30.16"   Gusts: NA
Location:  33.74°N, 80.46°W
Report Text: KSSC 212358Z AUTO 07007KT 10SM FEW027 OVC050 10/05 A3016 RMK AO2 CIG 031 RWY22 SLP215 T01040045 10120 20104 55000 $
Loading
Personal Weather Stations






























Interactive Weather Map New forecast layout! Learn more

10-Day Weather Forecast

Advertisements
Track Severe Weather on mobile